Time;durP1;ratioP1;P1;durP2;ratioP2;P2;SDS_P1;SDS_P2;PMS_P1;PMS_P2;Temp;Humidity;BMP_temperature;BMP_pressure;BME280_temperature;BME280_humidity;BME280_pressure;Samples;Min_cycle;Max_cycle;Signal;HPM_P1;HPM_P2
2021/05/10 00:00:06;;;;;;;3.65;1.42;;;19.50;99.90;;;;;;5031846;28;20410;-85
2021/05/10 00:02:32;;;;;;;4.18;1.23;;;19.50;99.90;;;;;;5031864;28;20072;-85
2021/05/10 00:04:57;;;;;;;4.10;1.33;;;19.50;99.90;;;;;;5031887;28;20425;-85
2021/05/10 00:07:23;;;;;;;3.88;1.45;;;19.50;99.90;;;;;;5031510;28;20045;-85
2021/05/10 00:09:49;;;;;;;4.20;1.38;;;19.30;99.90;;;;;;5033792;28;20505;-85
2021/05/10 00:12:14;;;;;;;5.13;1.60;;;19.30;99.90;;;;;;5030360;28;20402;-85
2021/05/10 00:14:43;;;;;;;3.47;1.33;;;19.70;99.90;;;;;;5031426;28;20082;-86
2021/05/10 00:17:08;;;;;;;2.50;1.15;;;19.30;99.90;;;;;;5032081;28;20036;-85
2021/05/10 00:19:34;;;;;;;2.40;1.38;;;19.30;99.90;;;;;;5031328;28;20371;-86
2021/05/10 00:22:00;;;;;;;4.63;1.52;;;19.20;99.90;;;;;;5032148;28;20030;-86
2021/05/10 00:24:27;;;;;;;4.90;2.20;;;19.20;99.90;;;;;;5031462;28;20490;-86
2021/05/10 00:26:52;;;;;;;1.90;1.08;;;19.20;99.90;;;;;;5031303;28;20056;-86
2021/05/10 00:29:18;;;;;;;2.85;1.27;;;19.20;99.90;;;;;;5030869;28;20491;-85
2021/05/10 00:31:45;;;;;;;2.55;1.48;;;19.20;99.90;;;;;;5031173;28;20061;-84
2021/05/10 00:34:11;;;;;;;2.55;1.60;;;19.20;99.90;;;;;;5032867;28;20048;-84
2021/05/10 00:36:37;;;;;;;5.15;1.50;;;19.20;99.90;;;;;;5046443;28;20383;-85
2021/05/10 00:39:04;;;;;;;4.50;1.45;;;19.30;99.90;;;;;;5031060;28;20024;-85
2021/05/10 00:41:30;;;;;;;4.35;1.40;;;19.20;99.90;;;;;;5031394;28;20513;-85
2021/05/10 00:43:56;;;;;;;4.47;1.50;;;19.40;99.90;;;;;;5031262;28;20067;-85
2021/05/10 00:46:21;;;;;;;8.35;1.67;;;19.20;99.90;;;;;;5031648;28;20056;-86
2021/05/10 00:48:47;;;;;;;5.60;1.40;;;19.20;99.90;;;;;;5030497;28;20516;-86
2021/05/10 00:51:13;;;;;;;2.80;1.38;;;19.10;99.90;;;;;;5028309;28;20041;-86
2021/05/10 00:53:38;;;;;;;6.95;1.58;;;19.40;99.90;;;;;;5031082;28;20025;-85
2021/05/10 00:56:04;;;;;;;3.20;1.60;;;19.00;99.90;;;;;;5031191;28;20649;-87
2021/05/10 00:58:31;;;;;;;5.57;1.20;;;19.00;99.90;;;;;;5030702;28;20036;-86
2021/05/10 01:00:56;;;;;;;4.40;1.30;;;19.00;99.90;;;;;;5033161;28;20029;-85
2021/05/10 01:03:22;;;;;;;2.70;1.38;;;19.00;99.90;;;;;;5030627;28;20029;-86
2021/05/10 01:05:48;;;;;;;3.75;1.50;;;19.10;99.90;;;;;;5030381;28;20029;-85
2021/05/10 01:08:13;;;;;;;5.30;1.45;;;19.10;99.90;;;;;;5030806;28;20556;-84
2021/05/10 01:10:39;;;;;;;4.53;1.50;;;19.20;99.90;;;;;;5031147;28;20092;-86
2021/05/10 01:13:05;;;;;;;4.20;1.35;;;18.80;99.90;;;;;;5032614;28;20057;-86
2021/05/10 01:15:31;;;;;;;4.32;1.50;;;18.80;99.90;;;;;;5031203;28;20033;-85
2021/05/10 01:17:57;;;;;;;6.00;1.70;;;19.00;99.90;;;;;;5030456;28;20032;-85
2021/05/10 01:20:23;;;;;;;3.05;1.60;;;19.10;99.90;;;;;;5030153;28;20061;-85
2021/05/10 01:22:51;;;;;;;4.25;1.50;;;18.80;99.90;;;;;;5030964;28;20029;-85
2021/05/10 01:25:25;;;;;;;3.90;1.60;;;18.60;99.90;;;;;;5032016;28;20021;-85
2021/05/10 01:27:52;;;;;;;4.43;1.50;;;18.50;99.90;;;;;;5032573;28;20460;-85
2021/05/10 01:30:19;;;;;;;5.18;1.67;;;18.60;99.90;;;;;;5030329;28;20398;-85
2021/05/10 01:32:47;;;;;;;3.92;1.60;;;18.60;99.90;;;;;;5030009;28;20049;-86
2021/05/10 01:35:15;;;;;;;4.28;1.85;;;18.50;99.90;;;;;;5030155;28;20122;-86
2021/05/10 01:37:40;;;;;;;2.83;1.40;;;18.40;99.90;;;;;;5015131;28;20098;-85
2021/05/10 01:40:08;;;;;;;3.67;1.70;;;18.30;99.90;;;;;;5032277;28;20028;-86
2021/05/10 01:42:33;;;;;;;6.55;1.67;;;18.20;99.90;;;;;;5030831;28;20033;-86
2021/05/10 01:44:59;;;;;;;5.65;1.50;;;18.20;99.90;;;;;;5030942;28;20372;-85
2021/05/10 01:47:25;;;;;;;2.63;1.30;;;18.20;99.90;;;;;;5034229;28;20041;-85
2021/05/10 01:49:51;;;;;;;3.78;1.65;;;18.20;99.90;;;;;;5034790;28;20026;-86
2021/05/10 01:52:17;;;;;;;4.15;1.60;;;18.50;99.90;;;;;;5035783;28;20029;-83
2021/05/10 01:54:53;;;;;;;2.05;1.42;;;18.30;99.90;;;;;;5035213;28;20060;-85
2021/05/10 01:57:20;;;;;;;4.28;1.75;;;18.20;99.90;;;;;;5032657;28;20069;-85
2021/05/10 01:59:47;;;;;;;3.08;1.40;;;18.10;99.90;;;;;;5033980;28;20017;-85
2021/05/10 02:02:13;;;;;;;3.50;1.70;;;18.10;99.90;;;;;;5034563;28;20083;-85
2021/05/10 02:05:12;;;;;;;6.88;2.05;;;18.10;99.90;;;;;;5017229;28;20044;-85
2021/05/10 02:07:40;;;;;;;2.03;1.35;;;18.00;99.90;;;;;;5034160;28;20568;-86
2021/05/10 02:10:10;;;;;;;4.78;1.80;;;17.90;99.90;;;;;;5036099;28;20478;-85
2021/05/10 02:12:36;;;;;;;2.40;1.55;;;17.90;99.90;;;;;;5032381;28;20025;-85
2021/05/10 02:15:05;;;;;;;2.10;1.30;;;17.90;99.90;;;;;;5033888;28;20104;-86
2021/05/10 02:17:30;;;;;;;5.45;1.65;;;17.80;99.90;;;;;;5032449;28;20029;-85
2021/05/10 02:19:56;;;;;;;2.08;1.65;;;18.00;99.90;;;;;;5034094;28;20036;-85
2021/05/10 02:22:22;;;;;;;4.65;1.40;;;17.80;99.90;;;;;;5033062;28;20025;-85
2021/05/10 02:24:47;;;;;;;6.68;1.63;;;17.80;99.90;;;;;;5034966;28;20029;-85
2021/05/10 02:27:14;;;;;;;4.72;1.50;;;17.70;99.90;;;;;;5034821;28;20517;-85
2021/05/10 02:29:39;;;;;;;3.75;1.83;;;17.70;99.90;;;;;;5033717;28;20029;-85
2021/05/10 02:32:05;;;;;;;3.38;1.50;;;17.70;99.90;;;;;;5033256;28;20033;-86
2021/05/10 02:34:31;;;;;;;4.07;1.60;;;17.70;99.90;;;;;;5033988;28;20041;-86
2021/05/10 02:36:56;;;;;;;4.45;1.80;;;17.70;99.90;;;;;;5035576;28;20045;-85
2021/05/10 02:39:22;;;;;;;4.60;1.63;;;17.70;99.90;;;;;;5033739;28;20029;-86
2021/05/10 02:41:48;;;;;;;28.27;2.40;;;17.60;99.90;;;;;;5033270;28;20145;-84
2021/05/10 02:44:13;;;;;;;2.42;1.55;;;17.50;99.90;;;;;;5032287;28;20395;-86
2021/05/10 02:46:39;;;;;;;2.95;1.60;;;17.50;99.90;;;;;;5033272;28;20034;-85
2021/05/10 02:49:05;;;;;;;4.70;1.73;;;17.60;99.90;;;;;;5035305;28;20044;-85
2021/05/10 02:51:30;;;;;;;14.10;2.15;;;17.60;99.90;;;;;;5033135;28;20079;-85
2021/05/10 02:53:56;;;;;;;3.72;1.80;;;17.60;99.90;;;;;;5032026;28;20055;-85
2021/05/10 02:56:21;;;;;;;4.05;1.50;;;17.70;99.90;;;;;;5033361;28;20033;-86
2021/05/10 02:58:48;;;;;;;4.20;1.98;;;17.70;99.90;;;;;;5032751;28;20025;-85
2021/05/10 03:01:13;;;;;;;6.93;1.60;;;17.70;99.90;;;;;;5033898;28;20060;-86
2021/05/10 03:03:39;;;;;;;4.05;1.42;;;17.60;99.90;;;;;;5031905;28;20064;-85
2021/05/10 03:06:05;;;;;;;2.42;1.63;;;17.70;99.90;;;;;;5031922;28;20506;-86
2021/05/10 03:08:30;;;;;;;2.33;1.50;;;17.70;99.90;;;;;;5033285;28;20029;-85
2021/05/10 03:10:56;;;;;;;3.25;1.52;;;17.60;99.90;;;;;;5031157;28;20026;-86
2021/05/10 03:13:21;;;;;;;4.50;1.70;;;17.60;99.90;;;;;;5033446;28;20025;-86
2021/05/10 03:15:47;;;;;;;4.68;1.65;;;17.50;99.90;;;;;;5033856;28;20022;-85
2021/05/10 03:18:13;;;;;;;3.28;1.70;;;17.50;99.90;;;;;;5032453;28;20038;-86
2021/05/10 03:20:38;;;;;;;4.65;1.63;;;17.30;99.90;;;;;;5032697;28;20061;-86
2021/05/10 03:23:04;;;;;;;3.33;1.60;;;17.40;99.90;;;;;;5033669;28;20426;-86
2021/05/10 03:25:29;;;;;;;3.08;1.55;;;17.10;99.90;;;;;;5032452;28;20033;-85
2021/05/10 03:27:55;;;;;;;4.05;2.20;;;17.00;99.90;;;;;;5034444;28;20037;-84
2021/05/10 03:30:23;;;;;;;4.45;1.77;;;16.90;99.90;;;;;;5032298;28;20034;-85
2021/05/10 03:32:49;;;;;;;3.97;1.80;;;16.90;99.90;;;;;;5029966;28;20056;-85
2021/05/10 03:35:16;;;;;;;2.72;1.65;;;16.80;99.90;;;;;;5032539;28;20026;-85
2021/05/10 03:37:44;;;;;;;3.97;1.73;;;16.90;99.90;;;;;;5033041;28;20105;-88
2021/05/10 03:40:11;;;;;;;5.03;1.67;;;17.00;99.90;;;;;;5030518;28;20406;-91
2021/05/10 03:42:38;;;;;;;4.40;1.45;;;16.60;99.90;;;;;;5031515;28;20063;-89
2021/05/10 03:45:04;;;;;;;6.95;1.88;;;16.80;99.90;;;;;;5032393;28;20072;-90
2021/05/10 03:47:42;;;;;;;5.13;1.67;;;16.50;99.90;;;;;;5032278;28;20041;-89
2021/05/10 03:50:17;;;;;;;4.30;1.50;;;16.50;99.90;;;;;;5032651;28;20457;-91
2021/05/10 03:52:44;;;;;;;4.72;2.00;;;16.40;99.90;;;;;;5015996;28;20030;-90
2021/05/10 03:55:13;;;;;;;4.88;1.95;;;16.40;99.90;;;;;;5034439;28;20028;-89
2021/05/10 03:57:39;;;;;;;3.83;2.08;;;16.40;99.90;;;;;;5032611;28;20053;-90
2021/05/10 04:00:07;;;;;;;8.57;2.08;;;16.40;99.90;;;;;;5031413;28;20060;-88
2021/05/10 04:02:33;;;;;;;4.03;1.67;;;16.20;99.90;;;;;;5031668;28;20029;-89
2021/05/10 04:15:34;;;;;;;8.38;1.90;;;16.30;99.90;;;;;;5031568;28;20105;-89
2021/05/10 04:17:59;;;;;;;4.28;1.83;;;16.20;99.90;;;;;;5031803;28;20104;-90
2021/05/10 04:20:25;;;;;;;5.75;1.73;;;16.30;99.90;;;;;;5031942;28;20057;-89
2021/05/10 04:22:51;;;;;;;6.28;2.25;;;16.40;99.90;;;;;;5031657;28;20029;-89
2021/05/10 04:25:16;;;;;;;3.42;1.65;;;16.50;99.90;;;;;;5033054;28;20474;-89
2021/05/10 04:27:42;;;;;;;3.15;1.60;;;16.40;99.90;;;;;;5032242;28;20044;-89
2021/05/10 04:30:08;;;;;;;4.90;1.98;;;16.50;99.90;;;;;;5029962;28;20034;-89
2021/05/10 04:32:34;;;;;;;4.57;1.90;;;16.30;99.90;;;;;;5031538;28;20045;-89
2021/05/10 04:35:00;;;;;;;4.15;1.67;;;16.30;99.90;;;;;;5031966;28;20072;-89
2021/05/10 04:37:25;;;;;;;6.38;2.10;;;16.10;99.90;;;;;;5032446;28;20372;-89
2021/05/10 04:39:51;;;;;;;3.88;1.90;;;16.10;99.90;;;;;;5030994;28;20402;-90
2021/05/10 04:42:16;;;;;;;5.25;1.92;;;16.20;99.90;;;;;;5030967;28;20162;-89
2021/05/10 04:44:42;;;;;;;8.90;2.40;;;16.30;99.90;;;;;;5031564;28;20038;-89
2021/05/10 04:47:08;;;;;;;5.15;2.13;;;16.30;99.90;;;;;;5031267;28;20105;-90
2021/05/10 04:49:33;;;;;;;5.40;2.05;;;16.30;99.90;;;;;;5031484;28;20025;-89
2021/05/10 04:51:59;;;;;;;5.28;1.73;;;16.40;99.90;;;;;;5033546;28;20168;-89
2021/05/10 04:54:24;;;;;;;4.05;1.95;;;16.50;99.90;;;;;;5031238;28;20025;-89
2021/05/10 04:56:50;;;;;;;5.00;2.08;;;16.50;99.90;;;;;;5028179;28;20083;-89
2021/05/10 04:59:15;;;;;;;2.47;1.73;;;16.60;99.90;;;;;;5025757;28;20398;-89
2021/05/10 05:01:43;;;;;;;6.13;1.60;;;16.80;99.90;;;;;;5031226;28;20108;-89
2021/05/10 05:04:08;;;;;;;4.35;2.08;;;16.60;99.90;;;;;;5028973;28;20037;-89
2021/05/10 05:06:34;;;;;;;5.70;1.83;;;16.80;99.90;;;;;;5031412;28;20036;-89
2021/05/10 05:09:00;;;;;;;5.35;1.95;;;16.70;99.90;;;;;;5030996;28;20367;-89
2021/05/10 05:11:25;;;;;;;3.17;1.75;;;16.60;99.90;;;;;;5030701;28;20099;-90
2021/05/10 05:13:51;;;;;;;4.28;1.98;;;16.60;99.90;;;;;;5030761;28;20112;-89
2021/05/10 05:16:16;;;;;;;5.22;2.20;;;17.00;99.90;;;;;;5032270;28;20067;-89
2021/05/10 05:18:42;;;;;;;4.00;1.98;;;16.90;99.90;;;;;;5030312;28;20025;-89
2021/05/10 05:21:09;;;;;;;6.10;2.15;;;16.80;99.90;;;;;;5031063;28;20498;-90
2021/05/10 05:23:34;;;;;;;7.13;1.90;;;16.70;99.90;;;;;;5031263;28;20030;-89
2021/05/10 05:26:02;;;;;;;8.02;2.47;;;16.80;99.90;;;;;;5028898;28;20450;-89
2021/05/10 05:28:29;;;;;;;7.82;2.35;;;16.80;99.90;;;;;;5030900;28;20044;-90
2021/05/10 05:30:56;;;;;;;3.85;2.00;;;16.90;99.90;;;;;;5048087;28;20026;-89
2021/05/10 05:33:22;;;;;;;7.63;2.08;;;17.00;99.90;;;;;;5030511;28;20061;-89
2021/05/10 05:35:47;;;;;;;4.90;2.10;;;17.10;99.90;;;;;;5030830;28;20022;-88
2021/05/10 05:38:13;;;;;;;4.20;2.25;;;17.20;99.90;;;;;;5029826;28;20030;-89
2021/05/10 05:40:40;;;;;;;2.63;1.17;;;17.40;99.90;;;;;;5030163;28;20069;-89
2021/05/10 05:43:08;;;;;;;1.95;1.20;;;17.60;99.90;;;;;;5032382;28;20056;-89
2021/05/10 05:45:34;;;;;;;3.88;1.83;;;17.70;99.90;;;;;;5030509;28;20036;-89
2021/05/10 05:48:02;;;;;;;4.72;1.88;;;17.80;99.90;;;;;;5028405;28;20413;-85
2021/05/10 05:50:27;;;;;;;7.78;1.70;;;17.90;99.90;;;;;;5030308;28;20030;-86
2021/05/10 05:52:53;;;;;;;3.70;2.00;;;18.00;99.90;;;;;;5030121;28;20040;-90
2021/05/10 05:55:19;;;;;;;39.13;3.15;;;18.00;99.90;;;;;;5031489;28;20109;-90
2021/05/10 05:57:45;;;;;;;6.45;1.90;;;18.00;99.90;;;;;;5031421;28;20085;-90
2021/05/10 06:00:12;;;;;;;5.38;2.70;;;17.90;99.90;;;;;;5030713;28;20029;-93
2021/05/10 06:02:40;;;;;;;3.60;1.90;;;17.90;99.90;;;;;;5030019;28;20552;-93
2021/05/10 06:05:07;;;;;;;3.22;1.77;;;17.80;99.90;;;;;;5029660;28;20445;-93
2021/05/10 06:07:37;;;;;;;3.45;1.70;;;17.80;99.90;;;;;;5031510;28;20046;-93
2021/05/10 06:10:03;;;;;;;80.40;9.18;;;17.80;99.90;;;;;;5031489;28;20063;-92
2021/05/10 06:12:29;;;;;;;12.50;7.47;;;17.70;99.90;;;;;;5030608;28;20029;-90
2021/05/10 06:14:54;;;;;;;5.80;1.70;;;17.40;99.90;;;;;;5030338;28;20470;-90
2021/05/10 06:17:20;;;;;;;5.72;1.58;;;17.50;99.90;;;;;;5030260;28;20056;-90
2021/05/10 06:19:45;;;;;;;3.95;1.75;;;17.40;99.90;;;;;;5029863;28;20046;-90
2021/05/10 06:22:11;;;;;;;3.25;1.90;;;17.30;99.90;;;;;;5032319;28;20033;-93
2021/05/10 06:24:39;;;;;;;3.90;2.00;;;17.30;99.90;;;;;;5029149;28;20033;-83
2021/05/10 06:27:05;;;;;;;3.08;1.83;;;17.50;99.90;;;;;;5027391;28;20033;-88
2021/05/10 06:29:31;;;;;;;5.60;1.90;;;17.40;99.90;;;;;;5028109;28;20025;-88
2021/05/10 06:31:56;;;;;;;12.35;2.92;;;17.50;99.90;;;;;;5029047;28;20441;-82
2021/05/10 06:34:22;;;;;;;6.45;2.45;;;17.50;99.90;;;;;;5033628;28;20049;-79
2021/05/10 06:36:48;;;;;;;7.15;2.03;;;17.70;99.90;;;;;;5034475;28;20041;-78
2021/05/10 06:39:13;;;;;;;4.25;2.05;;;17.40;99.90;;;;;;5032279;28;20025;-87
2021/05/10 06:41:39;;;;;;;8.20;2.53;;;17.30;99.90;;;;;;5032854;28;20490;-87
2021/05/10 06:44:05;;;;;;;8.25;2.80;;;17.10;99.90;;;;;;5033293;28;20394;-86
2021/05/10 06:46:30;;;;;;;12.60;3.33;;;16.90;99.90;;;;;;5033906;28;20029;-94
2021/05/10 06:48:56;;;;;;;8.45;3.35;;;16.90;99.90;;;;;;5035586;28;20096;-87
2021/05/10 06:51:21;;;;;;;5.13;2.78;;;16.90;99.90;;;;;;5033112;28;20453;-88
2021/05/10 06:53:47;;;;;;;12.55;3.10;;;17.20;99.90;;;;;;5032629;28;20525;-88
2021/05/10 06:56:13;;;;;;;5.25;2.40;;;16.70;99.90;;;;;;5033615;28;20029;-90
2021/05/10 06:58:38;;;;;;;5.05;2.60;;;16.70;99.90;;;;;;5033115;28;20025;-87
2021/05/10 07:01:04;;;;;;;5.97;2.58;;;16.80;99.90;;;;;;5034782;28;20052;-86
2021/05/10 07:03:29;;;;;;;7.10;2.50;;;16.80;99.90;;;;;;5032699;28;20052;-85
2021/05/10 07:05:55;;;;;;;5.63;2.60;;;16.80;99.90;;;;;;5031171;28;20032;-86
2021/05/10 07:08:21;;;;;;;5.00;2.45;;;16.80;99.90;;;;;;5032558;28;20370;-86
2021/05/10 07:10:48;;;;;;;5.78;2.28;;;16.80;99.90;;;;;;5032951;28;20120;-88
2021/05/10 07:13:14;;;;;;;6.85;2.65;;;16.70;99.90;;;;;;5034414;28;20378;-91
2021/05/10 07:15:40;;;;;;;5.97;2.88;;;16.70;99.90;;;;;;5033063;28;20021;-88
2021/05/10 07:18:08;;;;;;;5.55;2.50;;;16.60;99.90;;;;;;5031767;28;20026;-86
2021/05/10 07:20:35;;;;;;;7.13;2.90;;;16.70;99.90;;;;;;5032515;28;20061;-85
2021/05/10 07:23:00;;;;;;;6.53;2.90;;;17.00;99.90;;;;;;5029440;28;20528;-86
2021/05/10 07:25:27;;;;;;;4.05;2.40;;;17.10;99.90;;;;;;5032670;28;20135;-86
2021/05/10 07:27:53;;;;;;;5.13;2.30;;;16.60;99.90;;;;;;5032170;28;20099;-86
2021/05/10 07:30:19;;;;;;;6.07;2.70;;;16.80;99.90;;;;;;5030124;28;20474;-86
2021/05/10 07:32:44;;;;;;;5.63;2.05;;;16.90;99.90;;;;;;5031961;28;20043;-86
2021/05/10 07:35:11;;;;;;;6.88;2.72;;;16.80;99.90;;;;;;5032651;28;20037;-86
2021/05/10 07:37:36;;;;;;;7.20;2.40;;;17.00;99.90;;;;;;5031637;28;20398;-86
2021/05/10 07:40:04;;;;;;;3.40;2.20;;;16.90;99.90;;;;;;5033400;28;20036;-86
2021/05/10 07:42:30;;;;;;;6.35;2.80;;;17.10;99.90;;;;;;5032522;28;20059;-86
2021/05/10 07:44:56;;;;;;;5.38;2.35;;;17.10;99.90;;;;;;5030422;28;20033;-85
2021/05/10 07:47:22;;;;;;;4.28;2.47;;;17.00;99.90;;;;;;5032285;28;20593;-86
2021/05/10 07:49:47;;;;;;;7.45;2.70;;;16.80;99.90;;;;;;5032075;28;20037;-86
2021/05/10 07:52:13;;;;;;;7.95;2.63;;;16.80;99.90;;;;;;5033402;28;20057;-87
2021/05/10 07:54:38;;;;;;;5.88;2.58;;;16.60;99.90;;;;;;5032303;28;20486;-86
2021/05/10 07:57:06;;;;;;;6.38;2.88;;;16.70;99.90;;;;;;5031651;28;20025;-87
2021/05/10 07:59:32;;;;;;;5.38;2.72;;;16.30;99.90;;;;;;5030326;28;20033;-87
2021/05/10 08:01:59;;;;;;;7.72;3.13;;;16.20;99.90;;;;;;5031037;28;20410;-86
2021/05/10 08:04:25;;;;;;;7.03;3.10;;;16.50;99.90;;;;;;5032157;28;20018;-86
2021/05/10 08:06:50;;;;;;;4.75;3.28;;;16.70;99.90;;;;;;5032990;28;20114;-86
2021/05/10 08:09:16;;;;;;;6.38;3.80;;;16.50;99.90;;;;;;5031474;28;20068;-85
2021/05/10 08:11:42;;;;;;;6.70;3.25;;;16.40;1.00;;;;;;5031873;28;20452;-86
2021/05/10 08:14:07;;;;;;;7.88;3.65;;;16.40;1.00;;;;;;5030488;28;20026;-86
2021/05/10 08:16:33;;;;;;;7.28;3.75;;;16.20;1.00;;;;;;5030152;28;20152;-87
2021/05/10 08:18:58;;;;;;;7.90;3.92;;;16.10;1.00;;;;;;5033766;28;20041;-86
2021/05/10 08:21:24;;;;;;;9.23;3.80;;;16.20;1.00;;;;;;5030681;28;20482;-87
2021/05/10 08:23:49;;;;;;;9.40;3.28;;;16.20;1.00;;;;;;5031645;28;20516;-83
2021/05/10 08:26:15;;;;;;;7.55;3.60;;;16.20;1.00;;;;;;5031584;28;20037;-86
2021/05/10 08:28:41;;;;;;;7.05;3.78;;;16.00;1.00;;;;;;5030169;28;20033;-86
2021/05/10 08:31:06;;;;;;;7.07;3.67;;;16.00;1.00;;;;;;5033286;28;20029;-86
2021/05/10 08:33:32;;;;;;;6.15;3.83;;;15.90;1.00;;;;;;5031151;28;20517;-86
2021/05/10 08:35:58;;;;;;;9.18;3.50;;;16.20;1.00;;;;;;5031119;28;20071;-86
2021/05/10 08:38:23;;;;;;;4.88;3.28;;;16.00;1.00;;;;;;5031056;28;20034;-86
2021/05/10 08:40:53;;;;;;;6.45;4.07;;;16.00;1.00;;;;;;5030957;28;20017;-86
2021/05/10 08:43:23;;;;;;;8.25;3.42;;;16.10;1.00;;;;;;5032651;28;20034;-86
2021/05/10 08:45:57;;;;;;;7.30;3.25;;;16.30;1.00;;;;;;5032458;28;20029;-86
2021/05/10 08:48:24;;;;;;;6.72;3.83;;;16.30;1.00;;;;;;5030715;28;20128;-86
2021/05/10 08:50:51;;;;;;;6.80;3.58;;;16.50;1.00;;;;;;5031092;28;20394;-86
2021/05/10 08:53:38;;;;;;;5.22;3.38;;;16.30;1.00;;;;;;5031193;28;20049;-86
2021/05/10 08:56:07;;;;;;;8.15;3.33;;;16.40;1.00;;;;;;5029962;28;20021;-85
2021/05/10 08:58:43;;;;;;;4.60;3.15;;;16.50;1.00;;;;;;5031105;28;20084;-86
2021/05/10 09:01:11;;;;;;;4.93;3.47;;;16.20;1.00;;;;;;5028524;28;20025;-85
2021/05/10 09:03:41;;;;;;;6.43;3.42;;;16.20;1.00;;;;;;5028754;28;20037;-85
2021/05/10 09:06:18;;;;;;;4.13;3.67;;;16.20;1.00;;;;;;5029338;28;20033;-85
2021/05/10 09:08:46;;;;;;;6.25;3.47;;;16.20;1.00;;;;;;5030698;28;20088;-85
2021/05/10 09:11:18;;;;;;;5.43;4.20;;;16.40;1.00;;;;;;5030777;28;20454;-85
2021/05/10 09:13:54;;;;;;;4.60;3.95;;;16.40;1.00;;;;;;5015217;28;20056;-86
2021/05/10 09:16:20;;;;;;;6.72;3.60;;;16.40;1.00;;;;;;5031956;28;20030;-85
2021/05/10 09:18:57;;;;;;;5.15;4.00;;;16.40;1.00;;;;;;5031118;28;20378;-85
2021/05/10 09:21:24;;;;;;;5.45;4.30;;;16.50;1.00;;;;;;5030398;28;20052;-87
2021/05/10 09:23:51;;;;;;;6.47;4.20;;;16.50;1.00;;;;;;5027978;28;20033;-86
2021/05/10 09:26:32;;;;;;;5.07;3.95;;;16.50;1.00;;;;;;5030620;28;20030;-87
2021/05/10 09:28:59;;;;;;;7.93;4.75;;;16.40;1.00;;;;;;5030619;28;20045;-87
2021/05/10 09:31:26;;;;;;;5.22;3.08;;;16.80;1.00;;;;;;5031464;28;20505;-87
2021/05/10 09:33:51;;;;;;;6.97;2.95;;;16.20;1.00;;;;;;5029667;28;20041;-84
2021/05/10 09:36:37;;;;;;;3.03;2.38;;;16.40;1.00;;;;;;5029845;28;20037;-85
2021/05/10 09:39:06;;;;;;;4.22;2.63;;;16.00;1.00;;;;;;5029715;28;20029;-85
2021/05/10 09:41:32;;;;;;;4.15;2.20;;;16.00;1.00;;;;;;5028681;28;20030;-84
2021/05/10 09:44:07;;;;;;;2.78;2.20;;;15.90;1.00;;;;;;5029612;28;20029;-83
2021/05/10 09:46:46;;;;;;;4.75;1.92;;;15.80;1.00;;;;;;5029418;28;20045;-84
2021/05/10 09:49:12;;;;;;;3.78;2.85;;;15.90;1.00;;;;;;5027971;28;20501;-83
2021/05/10 09:51:38;;;;;;;4.82;2.10;;;15.90;1.00;;;;;;5030616;28;20042;-85
2021/05/10 09:54:14;;;;;;;3.20;2.13;;;16.00;1.00;;;;;;5029562;28;20068;-84
2021/05/10 09:56:41;;;;;;;2.42;1.83;;;15.90;1.00;;;;;;5029609;28;20498;-83
2021/05/10 09:59:17;;;;;;;3.55;2.00;;;16.20;1.00;;;;;;5029796;28;20041;-86
2021/05/10 10:01:46;;;;;;;4.95;2.60;;;16.00;1.00;;;;;;5014091;28;20030;-86
2021/05/10 10:04:13;;;;;;;3.25;2.55;;;16.00;1.00;;;;;;5032184;28;20034;-87
2021/05/10 10:06:40;;;;;;;7.57;4.07;;;15.90;1.00;;;;;;5030356;28;20462;-87
2021/05/10 10:09:06;;;;;;;4.70;3.30;;;15.90;1.00;;;;;;5033188;28;20048;-84
2021/05/10 10:11:32;;;;;;;3.47;3.13;;;16.30;1.00;;;;;;5033043;28;20029;-85
2021/05/10 10:13:59;;;;;;;4.13;3.55;;;15.60;1.00;;;;;;5033980;28;20490;-86
2021/05/10 10:16:27;;;;;;;6.18;3.70;;;15.70;1.00;;;;;;5033121;28;20433;-87
2021/05/10 10:18:54;;;;;;;3.75;3.00;;;15.70;1.00;;;;;;5033097;28;20025;-87
2021/05/10 10:21:21;;;;;;;6.25;3.25;;;16.00;1.00;;;;;;5031506;28;20081;-86
2021/05/10 10:24:05;;;;;;;2.30;1.98;;;15.80;1.00;;;;;;5032371;28;20021;-85
2021/05/10 10:26:33;;;;;;;1.77;1.45;;;15.90;1.00;;;;;;5033133;28;20034;-86
2021/05/10 10:29:05;;;;;;;3.67;1.60;;;15.90;1.00;;;;;;5033384;28;20394;-83
2021/05/10 10:31:38;;;;;;;2.58;1.33;;;15.80;1.00;;;;;;5032557;28;20028;-87
2021/05/10 10:34:10;;;;;;;1.70;1.08;;;15.70;1.00;;;;;;5035180;28;20084;-86
2021/05/10 10:36:42;;;;;;;1.27;0.90;;;15.70;1.00;;;;;;5033138;28;20576;-87
2021/05/10 10:39:20;;;;;;;1.30;0.77;;;15.60;1.00;;;;;;5032303;28;20080;-87
2021/05/10 10:41:56;;;;;;;0.90;0.80;;;15.70;1.00;;;;;;5033488;28;20079;-88
2021/05/10 10:44:53;;;;;;;0.70;0.60;;;15.70;1.00;;;;;;5032840;28;20037;-88
2021/05/10 10:47:45;;;;;;;1.05;0.75;;;15.70;1.00;;;;;;5033149;28;20042;-87
2021/05/10 10:50:19;;;;;;;1.02;0.55;;;15.50;1.00;;;;;;5030448;28;20033;-87
2021/05/10 10:53:00;;;;;;;2.15;1.13;;;15.50;1.00;;;;;;5024480;28;20036;-87
2021/05/10 10:55:41;;;;;;;0.70;0.70;;;15.40;1.00;;;;;;5030781;28;20025;-84
2021/05/10 10:58:20;;;;;;;1.17;0.73;;;15.50;1.00;;;;;;5034397;28;20052;-86
2021/05/10 11:01:09;;;;;;;0.80;0.80;;;15.40;1.00;;;;;;5032505;28;20086;-85
2021/05/10 11:03:36;;;;;;;1.10;0.70;;;15.40;1.00;;;;;;5032275;28;20060;-87
2021/05/10 11:06:02;;;;;;;0.75;0.75;;;15.90;1.00;;;;;;5032938;28;20026;-88
2021/05/10 11:08:42;;;;;;;0.70;0.70;;;15.40;1.00;;;;;;5031993;28;20037;-86
2021/05/10 11:11:08;;;;;;;1.20;0.70;;;15.60;1.00;;;;;;5032734;28;20467;-91
2021/05/10 11:13:43;;;;;;;2.55;1.00;;;15.50;1.00;;;;;;5034907;28;20029;-94
2021/05/10 11:16:10;;;;;;;1.13;0.70;;;15.70;1.00;;;;;;5030263;28;20029;-89
2021/05/10 11:18:53;;;;;;;0.80;0.80;;;15.60;1.00;;;;;;5031592;28;20018;-87
2021/05/10 11:21:22;;;;;;;0.98;0.77;;;15.70;1.00;;;;;;5032594;28;20504;-88
2021/05/10 11:24:01;;;;;;;1.80;0.60;;;15.60;1.00;;;;;;5031239;28;20032;-86
2021/05/10 11:26:46;;;;;;;1.38;0.73;;;16.00;1.00;;;;;;5032355;28;20026;-86
2021/05/10 11:29:26;;;;;;;1.35;0.70;;;15.80;1.00;;;;;;5031558;28;20050;-86
2021/05/10 11:31:54;;;;;;;1.50;0.60;;;15.90;1.00;;;;;;5017994;28;20451;-86
2021/05/10 11:34:32;;;;;;;2.88;1.30;;;16.10;1.00;;;;;;5033602;28;20486;-88
2021/05/10 11:36:59;;;;;;;1.00;0.70;;;16.10;1.00;;;;;;5032997;28;20029;-88
2021/05/10 11:39:27;;;;;;;1.05;0.75;;;15.80;1.00;;;;;;5031092;28;20572;-88
2021/05/10 11:42:10;;;;;;;1.35;0.70;;;15.70;1.00;;;;;;5030364;28;20021;-88
2021/05/10 11:44:40;;;;;;;1.75;0.85;;;15.80;1.00;;;;;;5032004;28;20082;-88
2021/05/10 11:47:08;;;;;;;1.13;0.70;;;16.00;1.00;;;;;;5033297;28;20026;-88
2021/05/10 11:49:39;;;;;;;1.20;0.70;;;16.00;1.00;;;;;;5032176;28;20044;-88
2021/05/10 11:52:09;;;;;;;5.28;1.45;;;16.00;1.00;;;;;;5034419;28;20036;-88
2021/05/10 11:54:35;;;;;;;6.93;2.05;;;15.70;1.00;;;;;;5032275;28;20029;-88
2021/05/10 11:57:04;;;;;;;2.13;0.75;;;15.60;1.00;;;;;;5031603;28;20033;-88
2021/05/10 12:02:14;;;;;;;2.28;0.90;;;15.70;1.00;;;;;;5031975;28;20045;-88
2021/05/10 12:04:49;;;;;;;2.25;1.02;;;15.60;1.00;;;;;;5032002;28;20080;-88
2021/05/10 12:07:16;;;;;;;1.58;0.70;;;15.60;1.00;;;;;;5029775;28;20036;-87
2021/05/10 12:09:43;;;;;;;2.75;0.75;;;15.60;1.00;;;;;;5032456;28;20382;-88
2021/05/10 12:12:17;;;;;;;3.22;1.15;;;15.30;1.00;;;;;;5031676;28;20029;-87
2021/05/10 12:14:48;;;;;;;2.47;0.70;;;15.40;1.00;;;;;;5032441;28;20406;-87
2021/05/10 12:17:24;;;;;;;2.13;0.68;;;15.40;1.00;;;;;;5030655;28;20033;-87
2021/05/10 12:20:15;;;;;;;2.47;0.98;;;15.50;1.00;;;;;;5017405;28;20112;-87
2021/05/10 12:22:47;;;;;;;1.52;0.90;;;15.60;1.00;;;;;;5031306;28;20026;-87
2021/05/10 12:25:20;;;;;;;5.32;1.17;;;15.90;1.00;;;;;;5028113;28;20037;-86
2021/05/10 12:28:03;;;;;;;3.67;1.30;;;15.90;1.00;;;;;;5031766;28;20037;-89
2021/05/10 12:30:50;;;;;;;1.38;0.70;;;16.10;1.00;;;;;;5026549;28;20032;-90
2021/05/10 12:33:23;;;;;;;2.50;0.73;;;16.30;1.00;;;;;;5036270;28;20525;-89
2021/05/10 12:35:54;;;;;;;4.25;0.68;;;16.60;1.00;;;;;;5025176;28;20505;-90
2021/05/10 12:38:37;;;;;;;2.35;1.20;;;16.20;1.00;;;;;;5028067;28;20026;-91
2021/05/10 12:41:08;;;;;;;1.45;0.88;;;16.10;1.00;;;;;;5030890;28;20149;-91
2021/05/10 12:43:44;;;;;;;2.50;0.90;;;15.90;1.00;;;;;;5031131;28;20036;-91
2021/05/10 12:46:10;;;;;;;0.93;0.70;;;16.00;1.00;;;;;;5027803;28;20075;-92
2021/05/10 12:48:41;;;;;;;1.63;0.60;;;16.30;1.00;;;;;;5030069;28;20445;-91
2021/05/10 12:51:15;;;;;;;1.65;0.57;;;16.00;1.00;;;;;;5030812;28;20022;-92
2021/05/10 12:53:56;;;;;;;0.68;0.50;;;15.90;1.00;;;;;;5029814;28;20100;-92
2021/05/10 12:56:23;;;;;;;0.40;0.40;;;15.90;1.00;;;;;;5029212;28;20052;-93
2021/05/10 12:58:51;;;;;;;0.57;0.50;;;15.80;1.00;;;;;;5030030;28;20037;-89
2021/05/10 13:01:18;;;;;;;1.98;1.02;;;16.40;1.00;;;;;;5032096;28;20021;-90
2021/05/10 13:03:57;;;;;;;1.15;0.50;;;16.10;1.00;;;;;;5031607;28;20025;-89
2021/05/10 13:06:33;;;;;;;0.55;0.50;;;16.20;1.00;;;;;;5030922;28;20021;-89
2021/05/10 13:09:01;;;;;;;5.40;1.63;;;16.20;1.00;;;;;;5030820;28;20437;-91